createdAt,value
2022-09-09T00:02:01.073Z,12.60
2022-09-09T00:04:33.409Z,12.95
2022-09-09T00:07:19.898Z,12.25
2022-09-09T00:09:50.345Z,9.45
2022-09-09T00:12:21.341Z,9.88
2022-09-09T00:14:52.055Z,8.00
2022-09-09T00:17:42.869Z,6.93
2022-09-09T00:20:24.690Z,8.50
2022-09-09T00:23:08.065Z,9.18
2022-09-09T00:25:37.923Z,9.65
2022-09-09T00:28:12.857Z,10.23
2022-09-09T00:30:43.140Z,9.05
2022-09-09T00:33:16.235Z,8.27
2022-09-09T00:35:49.557Z,8.63
2022-09-09T00:38:20.234Z,7.82
2022-09-09T00:40:58.230Z,7.38
2022-09-09T00:43:27.742Z,6.82
2022-09-09T00:46:00.813Z,6.53
2022-09-09T00:48:39.990Z,5.55
2022-09-09T00:51:16.137Z,6.05
2022-09-09T00:54:02.521Z,6.22
2022-09-09T00:56:43.118Z,6.22
2022-09-09T00:59:30.824Z,5.75
2022-09-09T01:01:59.419Z,5.10
2022-09-09T01:04:34.988Z,5.63
2022-09-09T01:07:13.499Z,5.15
2022-09-09T01:09:52.753Z,3.67
2022-09-09T01:12:35.980Z,3.95
2022-09-09T01:15:06.100Z,3.55
2022-09-09T01:17:37.271Z,3.15
2022-09-09T01:20:20.363Z,3.20
2022-09-09T01:23:19.383Z,3.95
2022-09-09T01:26:11.627Z,3.20
2022-09-09T01:28:40.689Z,3.40
2022-09-09T01:31:15.218Z,3.15
2022-09-09T01:33:46.848Z,3.03
2022-09-09T01:36:41.695Z,3.20
2022-09-09T01:39:09.516Z,3.03
2022-09-09T01:41:37.922Z,3.65
2022-09-09T01:44:10.143Z,3.30
2022-09-09T01:46:39.914Z,3.40
2022-09-09T01:49:15.653Z,3.65
2022-09-09T01:51:44.090Z,4.10
2022-09-09T01:54:14.716Z,4.05
2022-09-09T01:56:42.691Z,3.95
2022-09-09T01:59:19.806Z,3.97
2022-09-09T02:01:50.829Z,3.53
2022-09-09T02:04:38.767Z,3.70
2022-09-09T02:07:23.885Z,3.13
2022-09-09T02:09:55.619Z,3.67
2022-09-09T02:12:25.686Z,3.22
2022-09-09T02:15:04.883Z,3.60
2022-09-09T02:17:40.639Z,3.92
2022-09-09T02:20:15.422Z,3.33
2022-09-09T02:23:00.784Z,3.22
2022-09-09T02:25:31.341Z,3.15
2022-09-09T02:28:13.814Z,3.60
2022-09-09T02:30:42.922Z,4.18
2022-09-09T02:33:13.615Z,4.13
2022-09-09T02:35:47.452Z,3.92
2022-09-09T02:38:18.358Z,4.30
2022-09-09T02:40:59.662Z,4.13
2022-09-09T02:43:27.695Z,4.50
2022-09-09T02:46:15.761Z,3.97
2022-09-09T02:48:52.833Z,4.53
2022-09-09T02:51:26.122Z,4.72
2022-09-09T02:53:55.950Z,4.30
2022-09-09T02:56:28.078Z,3.95
2022-09-09T02:58:57.282Z,4.25
2022-09-09T03:01:26.244Z,4.65
2022-09-09T03:03:53.855Z,4.55
2022-09-09T03:06:21.683Z,4.78
2022-09-09T03:08:55.976Z,4.28
2022-09-09T03:11:27.037Z,4.20
2022-09-09T03:13:55.828Z,4.28
2022-09-09T03:16:24.489Z,4.28
2022-09-09T03:18:54.465Z,4.53
2022-09-09T03:21:22.312Z,4.85
2022-09-09T03:23:50.758Z,5.07
2022-09-09T03:26:18.657Z,4.43
2022-09-09T03:28:47.972Z,4.63
2022-09-09T03:31:20.587Z,4.28
2022-09-09T03:33:49.045Z,4.57
2022-09-09T03:36:18.215Z,4.82
2022-09-09T03:38:46.006Z,3.95
2022-09-09T03:41:14.552Z,4.22
2022-09-09T03:43:42.887Z,4.00
2022-09-09T03:46:10.695Z,3.80
2022-09-09T03:48:38.918Z,4.45
2022-09-09T03:51:06.838Z,3.97
2022-09-09T03:53:36.783Z,4.53
2022-09-09T03:56:05.211Z,3.95
2022-09-09T03:58:32.975Z,3.55
2022-09-09T04:01:09.736Z,3.80
2022-09-09T04:03:38.539Z,3.40
2022-09-09T04:06:07.770Z,4.00
2022-09-09T04:08:37.342Z,3.63
2022-09-09T04:11:07.526Z,3.80
2022-09-09T04:13:38.641Z,3.58
2022-09-09T04:16:07.338Z,3.65
2022-09-09T04:18:37.064Z,4.07
2022-09-09T04:21:06.212Z,4.05
2022-09-09T04:23:35.250Z,5.13
2022-09-09T04:26:03.080Z,5.40
2022-09-09T04:28:34.479Z,4.43
2022-09-09T04:31:14.417Z,4.28
2022-09-09T04:33:42.287Z,4.60
2022-09-09T04:36:11.856Z,4.40
2022-09-09T04:38:39.502Z,4.10
2022-09-09T04:41:08.204Z,4.10
2022-09-09T04:43:38.382Z,4.25
2022-09-09T04:46:08.191Z,4.47
2022-09-09T04:48:36.541Z,4.65
2022-09-09T04:51:07.523Z,3.58
2022-09-09T04:53:35.719Z,3.60
2022-09-09T04:56:05.390Z,2.70
2022-09-09T04:58:37.345Z,2.70
2022-09-09T05:01:11.815Z,3.22
2022-09-09T05:03:46.040Z,2.35
2022-09-09T05:06:16.796Z,2.20
2022-09-09T05:08:45.002Z,2.20
2022-09-09T05:11:29.858Z,1.80
2022-09-09T05:14:28.181Z,2.08
2022-09-09T05:16:57.184Z,1.40
2022-09-09T05:19:27.298Z,1.73
2022-09-09T05:21:55.734Z,1.43
2022-09-09T05:24:34.123Z,1.50
2022-09-09T05:27:04.122Z,1.67
2022-09-09T05:29:36.358Z,1.70
2022-09-09T05:32:13.514Z,1.40
2022-09-09T05:34:45.046Z,1.48
2022-09-09T05:37:13.442Z,1.70
2022-09-09T05:39:41.158Z,1.70
2022-09-09T05:42:08.975Z,1.90
2022-09-09T05:44:36.878Z,1.67
2022-09-09T05:47:04.719Z,1.80
2022-09-09T05:49:33.106Z,2.03
2022-09-09T05:52:01.178Z,2.10
2022-09-09T05:54:28.718Z,2.00
2022-09-09T05:56:59.269Z,1.92
2022-09-09T05:59:29.413Z,1.50
2022-09-09T06:04:35.363Z,1.20
2022-09-09T06:07:05.740Z,1.23
2022-09-09T06:09:34.954Z,1.05
2022-09-09T06:12:04.890Z,0.93
2022-09-09T06:14:37.998Z,0.90
2022-09-09T06:17:07.685Z,0.88
2022-09-09T06:19:37.144Z,0.98
2022-09-09T06:22:06.495Z,0.95
2022-09-09T06:24:39.424Z,1.02
2022-09-09T06:27:09.752Z,0.85
2022-09-09T06:29:39.904Z,0.90
2022-09-09T06:32:10.752Z,0.98
2022-09-09T06:34:39.885Z,0.70
2022-09-09T06:37:09.581Z,0.82
2022-09-09T06:39:44.086Z,0.82
2022-09-09T06:42:13.210Z,0.65
2022-09-09T06:44:53.617Z,0.70
2022-09-09T06:47:48.711Z,0.60
2022-09-09T06:50:17.881Z,0.70
2022-09-09T06:52:48.911Z,0.55
2022-09-09T06:55:18.649Z,0.70
2022-09-09T06:57:47.643Z,0.63
2022-09-09T07:00:24.130Z,0.40
2022-09-09T07:02:53.724Z,0.47
2022-09-09T07:05:22.997Z,0.60
2022-09-09T07:07:51.405Z,0.50
2022-09-09T07:10:22.269Z,0.40
2022-09-09T07:12:54.564Z,0.60
2022-09-09T07:15:25.928Z,0.90
2022-09-09T07:17:55.661Z,0.50
2022-09-09T07:20:24.031Z,0.90
2022-09-09T07:22:57.407Z,0.43
2022-09-09T07:25:25.717Z,0.40
2022-09-09T07:27:53.743Z,0.40
2022-09-09T07:30:25.627Z,0.45
2022-09-09T07:32:57.866Z,0.40
2022-09-09T07:35:25.692Z,0.30
2022-09-09T07:37:52.902Z,0.60
2022-09-09T07:40:22.850Z,0.47
2022-09-09T07:42:50.579Z,0.30
2022-09-09T07:45:18.362Z,0.43
2022-09-09T07:47:47.523Z,0.52
2022-09-09T07:50:16.177Z,0.40
2022-09-09T07:52:44.377Z,0.73
2022-09-09T07:55:11.809Z,0.45
2022-09-09T07:57:39.556Z,0.52
2022-09-09T08:00:08.381Z,0.60
2022-09-09T08:02:44.615Z,0.52
2022-09-09T08:05:12.519Z,0.50
2022-09-09T08:07:41.934Z,0.70
2022-09-09T08:10:09.435Z,0.50
2022-09-09T08:12:40.269Z,0.50
2022-09-09T08:15:09.452Z,0.50
2022-09-09T08:17:38.866Z,0.43
2022-09-09T08:20:08.607Z,0.40
2022-09-09T08:22:38.622Z,0.60
2022-09-09T08:25:07.466Z,0.40
2022-09-09T08:27:36.462Z,0.50
2022-09-09T08:30:05.215Z,0.40
2022-09-09T08:32:32.571Z,0.32
2022-09-09T08:35:01.598Z,0.40
2022-09-09T08:37:30.323Z,0.40
2022-09-09T08:39:57.854Z,0.45
2022-09-09T08:42:29.399Z,0.50
2022-09-09T08:45:22.624Z,0.60
2022-09-09T08:48:02.401Z,0.50
2022-09-09T08:50:36.301Z,0.50
2022-09-09T08:53:26.085Z,0.77
2022-09-09T08:56:08.004Z,0.75
2022-09-09T08:58:50.761Z,0.50
2022-09-09T09:01:33.997Z,0.50
2022-09-09T09:04:30.836Z,0.38
2022-09-09T09:07:10.513Z,0.50
2022-09-09T09:09:47.680Z,0.40
2022-09-09T09:12:22.733Z,0.52
2022-09-09T09:14:50.821Z,0.50
2022-09-09T09:17:21.256Z,1.33
2022-09-09T09:19:50.738Z,0.68
2022-09-09T09:22:30.248Z,0.50
2022-09-09T09:25:09.333Z,0.50
2022-09-09T09:27:45.854Z,0.50
2022-09-09T09:30:26.719Z,0.47
2022-09-09T09:33:06.663Z,0.40
2022-09-09T09:35:38.572Z,0.40
2022-09-09T09:41:16.566Z,0.50
2022-09-09T09:43:54.871Z,0.50
2022-09-09T09:46:25.271Z,0.65
2022-09-09T09:49:06.705Z,0.75
2022-09-09T09:51:35.580Z,0.70
2022-09-09T09:54:16.124Z,0.38
2022-09-09T09:56:48.691Z,0.70
2022-09-09T09:59:39.129Z,0.90
2022-09-09T10:02:25.842Z,0.80
2022-09-09T10:05:16.711Z,1.23
2022-09-09T10:07:48.996Z,0.60
2022-09-09T10:10:30.103Z,0.80
2022-09-09T10:13:07.112Z,0.75
2022-09-09T10:15:47.700Z,0.50
2022-09-09T10:18:38.290Z,0.50
2022-09-09T10:21:23.214Z,0.70
2022-09-09T10:23:59.481Z,1.45
2022-09-09T10:26:36.173Z,1.52
2022-09-09T10:29:15.224Z,1.08
2022-09-09T10:31:54.682Z,0.40
2022-09-09T10:34:42.874Z,0.45
2022-09-09T10:37:34.082Z,0.60
2022-09-09T10:40:39.300Z,0.60
2022-09-09T10:43:21.415Z,0.75
2022-09-09T10:46:06.522Z,0.90
2022-09-09T10:48:52.505Z,1.00
2022-09-09T10:51:24.421Z,0.70
2022-09-09T10:54:10.031Z,0.57
2022-09-09T10:56:40.743Z,0.60
2022-09-09T10:59:21.754Z,0.50
2022-09-09T11:02:09.405Z,0.70
2022-09-09T11:04:44.033Z,0.25
2022-09-09T11:07:20.004Z,0.40
2022-09-09T11:09:54.318Z,0.80
2022-09-09T11:12:24.849Z,0.40
2022-09-09T11:15:03.184Z,0.68
2022-09-09T11:18:00.759Z,4.32
2022-09-09T11:20:28.416Z,1.13
2022-09-09T11:23:33.512Z,21.15
2022-09-09T11:26:05.317Z,0.52
2022-09-09T11:28:52.799Z,0.50
2022-09-09T11:31:35.684Z,1.58
2022-09-09T11:34:32.586Z,2.15
2022-09-09T11:37:03.320Z,1.20
2022-09-09T11:40:08.263Z,1.30
2022-09-09T11:42:35.944Z,0.75
2022-09-09T11:45:25.170Z,1.00
2022-09-09T11:47:54.784Z,1.40
2022-09-09T11:50:21.880Z,1.33
2022-09-09T11:52:50.488Z,1.10
2022-09-09T11:55:34.023Z,1.58
2022-09-09T11:58:03.671Z,0.65
2022-09-09T12:00:36.181Z,1.80
2022-09-09T12:03:04.445Z,0.75
2022-09-09T12:05:43.976Z,1.08
2022-09-09T12:08:18.565Z,0.60
2022-09-09T12:11:00.502Z,1.80
2022-09-09T12:13:28.504Z,1.30
2022-09-09T12:15:57.901Z,1.80
2022-09-09T12:18:37.693Z,1.35
2022-09-09T12:21:24.792Z,1.48
2022-09-09T12:23:56.992Z,0.60
2022-09-09T12:26:47.732Z,1.20
2022-09-09T12:29:37.630Z,0.90
2022-09-09T12:32:19.674Z,1.40
2022-09-09T12:35:01.096Z,2.63
2022-09-09T12:37:39.236Z,6.60
2022-09-09T12:40:24.292Z,2.58
2022-09-09T12:42:52.432Z,1.42
2022-09-09T12:45:27.991Z,2.28
2022-09-09T12:48:01.316Z,1.42
2022-09-09T12:50:35.583Z,10.32
2022-09-09T12:53:09.486Z,3.72
2022-09-09T12:55:38.915Z,1.17
2022-09-09T12:58:07.699Z,1.10
2022-09-09T13:00:37.080Z,1.02
2022-09-09T13:03:18.331Z,0.55
2022-09-09T13:05:47.781Z,5.35
2022-09-09T13:08:21.595Z,4.18
2022-09-09T13:11:02.542Z,5.43
2022-09-09T13:13:40.191Z,2.60
2022-09-09T13:16:32.776Z,1.90
2022-09-09T13:19:10.043Z,2.95
2022-09-09T13:21:40.067Z,3.83
2022-09-09T13:24:25.836Z,2.88
2022-09-09T13:27:02.944Z,2.95
2022-09-09T13:29:32.604Z,2.97
2022-09-09T13:32:08.786Z,2.78
2022-09-09T13:34:36.678Z,3.08
2022-09-09T13:37:07.440Z,1.65
2022-09-09T13:39:38.919Z,0.73
2022-09-09T13:42:07.891Z,4.57
2022-09-09T13:44:39.350Z,6.55
2022-09-09T13:47:15.681Z,3.10
2022-09-09T13:49:43.580Z,1.60
2022-09-09T13:52:15.301Z,1.50
2022-09-09T13:54:43.617Z,1.90
2022-09-09T13:57:19.172Z,3.47
2022-09-09T14:00:04.047Z,2.78
2022-09-09T14:02:34.269Z,3.78
2022-09-09T14:05:02.117Z,3.63
2022-09-09T14:07:30.189Z,1.80
2022-09-09T14:09:58.868Z,2.20
2022-09-09T14:12:27.208Z,4.15
2022-09-09T14:14:55.199Z,1.60
2022-09-09T14:17:23.804Z,1.30
2022-09-09T14:19:51.778Z,1.00
2022-09-09T14:22:19.491Z,0.75
2022-09-09T14:24:47.608Z,1.17
2022-09-09T14:27:16.818Z,1.38
2022-09-09T14:29:45.288Z,4.00
2022-09-09T14:32:13.557Z,2.40
2022-09-09T14:34:41.620Z,1.10
2022-09-09T14:37:08.868Z,1.67
2022-09-09T14:39:36.821Z,2.45
2022-09-09T14:42:06.340Z,1.30
2022-09-09T14:44:34.697Z,1.83
2022-09-09T14:47:03.200Z,1.60
2022-09-09T14:49:31.191Z,4.78
2022-09-09T14:51:59.414Z,1.02
2022-09-09T14:54:27.390Z,0.85
2022-09-09T14:56:55.749Z,3.15
2022-09-09T14:59:24.006Z,2.70
2022-09-09T15:01:52.443Z,4.13
2022-09-09T15:04:21.463Z,4.50
2022-09-09T15:06:50.904Z,2.00
2022-09-09T15:09:19.341Z,10.70
2022-09-09T15:11:48.014Z,2.40
2022-09-09T15:14:15.769Z,1.73
2022-09-09T15:16:44.066Z,2.88
2022-09-09T15:19:12.634Z,8.35
2022-09-09T15:21:40.933Z,8.55
2022-09-09T15:24:09.607Z,23.83
2022-09-09T15:26:39.691Z,7.40
2022-09-09T15:29:09.108Z,3.53
2022-09-09T15:31:37.953Z,8.95
2022-09-09T15:34:08.419Z,13.70
2022-09-09T15:36:38.226Z,4.05
2022-09-09T15:39:08.177Z,10.73
2022-09-09T15:41:36.886Z,7.80
2022-09-09T15:44:06.267Z,12.63
2022-09-09T15:46:38.935Z,6.78
2022-09-09T15:49:19.334Z,6.65
2022-09-09T15:51:49.533Z,27.43
2022-09-09T15:54:19.424Z,10.90
2022-09-09T15:56:49.790Z,7.43
2022-09-09T15:59:19.258Z,4.07
2022-09-09T16:01:48.251Z,2.20
2022-09-09T16:04:24.019Z,2.10
2022-09-09T16:06:53.967Z,4.75
2022-09-09T16:09:22.783Z,1.85
2022-09-09T16:11:54.196Z,1.70
2022-09-09T16:14:23.154Z,1.80
2022-09-09T16:16:51.874Z,1.50
2022-09-09T16:19:20.513Z,1.60
2022-09-09T16:21:52.467Z,3.83
2022-09-09T16:24:22.420Z,6.82
2022-09-09T16:26:52.494Z,6.38
2022-09-09T16:29:22.782Z,7.20
2022-09-09T16:31:50.939Z,4.90
2022-09-09T16:34:19.531Z,3.95
2022-09-09T16:36:49.343Z,3.25
2022-09-09T16:39:21.073Z,4.63
2022-09-09T16:41:49.557Z,6.70
2022-09-09T16:44:19.257Z,2.60
2022-09-09T16:46:49.859Z,2.03
2022-09-09T16:49:17.490Z,2.33
2022-09-09T16:51:50.282Z,2.70
2022-09-09T16:54:19.239Z,1.98
2022-09-09T16:56:48.943Z,2.22
2022-09-09T16:59:18.404Z,2.20
2022-09-09T17:01:48.705Z,2.45
2022-09-09T17:04:21.819Z,2.20
2022-09-09T17:06:51.622Z,2.42
2022-09-09T17:09:19.930Z,2.30
2022-09-09T17:11:48.756Z,2.50
2022-09-09T17:14:18.497Z,2.13
2022-09-09T17:16:45.830Z,2.40
2022-09-09T17:19:13.720Z,2.65
2022-09-09T17:21:54.993Z,3.25
2022-09-09T17:24:30.164Z,3.55
2022-09-09T17:26:58.483Z,3.08
2022-09-09T17:29:26.256Z,2.83
2022-09-09T17:31:54.202Z,2.45
2022-09-09T17:34:22.019Z,2.45
2022-09-09T17:36:49.431Z,3.00
2022-09-09T17:39:16.874Z,3.63
2022-09-09T17:41:44.517Z,13.52
2022-09-09T17:44:12.408Z,6.63
2022-09-09T17:46:42.174Z,5.78
2022-09-09T17:49:13.073Z,4.90
2022-09-09T17:51:42.706Z,10.32
2022-09-09T17:54:13.643Z,5.38
2022-09-09T17:56:42.370Z,5.07
2022-09-09T17:59:12.255Z,5.05
2022-09-09T18:01:42.181Z,4.10
2022-09-09T18:04:10.590Z,3.70
2022-09-09T18:06:40.617Z,3.33
2022-09-09T18:09:13.289Z,4.50
2022-09-09T18:11:44.067Z,5.65
2022-09-09T18:14:14.253Z,15.75
2022-09-09T18:16:41.837Z,11.63
2022-09-09T18:19:13.976Z,4.97
2022-09-09T18:21:42.963Z,3.95
2022-09-09T18:24:11.804Z,3.88
2022-09-09T18:26:41.154Z,4.60
2022-09-09T18:29:12.942Z,4.40
2022-09-09T18:34:12.364Z,4.80
2022-09-09T18:36:45.492Z,6.13
2022-09-09T18:39:15.491Z,6.20
2022-09-09T18:41:52.463Z,5.97
2022-09-09T18:44:23.785Z,6.22
2022-09-09T18:46:52.809Z,6.70
2022-09-09T18:49:22.683Z,6.63
2022-09-09T18:51:50.381Z,6.50
2022-09-09T18:54:25.447Z,6.20
2022-09-09T18:56:53.335Z,6.25
2022-09-09T18:59:23.246Z,6.57
2022-09-09T19:01:52.890Z,8.75
2022-09-09T19:04:22.608Z,6.70
2022-09-09T19:06:58.092Z,5.25
2022-09-09T19:09:33.854Z,5.65
2022-09-09T19:12:01.708Z,7.30
2022-09-09T19:14:30.104Z,8.18
2022-09-09T19:16:58.129Z,8.02
2022-09-09T19:19:28.768Z,7.13
2022-09-09T19:21:57.789Z,5.43
2022-09-09T19:24:31.497Z,4.90
2022-09-09T19:27:02.337Z,4.57
2022-09-09T19:29:32.646Z,4.95
2022-09-09T19:34:49.632Z,5.15
2022-09-09T19:37:18.530Z,4.93
2022-09-09T19:39:47.436Z,6.45
2022-09-09T19:42:14.879Z,5.35
2022-09-09T19:44:42.449Z,6.95
2022-09-09T19:47:09.796Z,6.50
2022-09-09T19:49:37.136Z,5.97
2022-09-09T19:52:04.957Z,5.13
2022-09-09T19:54:32.932Z,5.63
2022-09-09T19:57:01.241Z,5.30
2022-09-09T19:59:29.337Z,5.80
2022-09-09T20:01:57.110Z,4.60
2022-09-09T20:04:26.347Z,4.90
2022-09-09T20:06:54.064Z,4.63
2022-09-09T20:09:21.754Z,4.97
2022-09-09T20:11:49.786Z,5.20
2022-09-09T20:14:18.346Z,4.45
2022-09-09T20:16:46.415Z,4.65
2022-09-09T20:19:18.270Z,5.57
2022-09-09T20:21:50.252Z,4.85
2022-09-09T20:24:20.652Z,4.53
2022-09-09T20:26:48.884Z,3.70
2022-09-09T20:29:18.835Z,3.70
2022-09-09T20:31:47.965Z,3.97
2022-09-09T20:34:18.865Z,3.92
2022-09-09T20:36:47.053Z,3.75
2022-09-09T20:39:22.641Z,3.97
2022-09-09T20:41:50.617Z,4.22
2022-09-09T20:44:24.068Z,4.40
2022-09-09T20:47:00.179Z,4.35
2022-09-09T20:49:27.886Z,4.20
2022-09-09T20:51:55.541Z,4.47
2022-09-09T20:54:25.104Z,5.68
2022-09-09T20:56:53.715Z,4.93
2022-09-09T20:59:26.480Z,4.50
2022-09-09T21:01:56.939Z,4.40
2022-09-09T21:04:26.083Z,4.10
2022-09-09T21:06:53.455Z,4.28
2022-09-09T21:09:22.844Z,3.80
2022-09-09T21:11:50.870Z,4.10
2022-09-09T21:14:18.300Z,4.70
2022-09-09T21:16:45.834Z,4.78
2022-09-09T21:19:13.257Z,4.38
2022-09-09T21:21:41.703Z,5.15
2022-09-09T21:24:09.835Z,4.50
2022-09-09T21:26:39.444Z,4.47
2022-09-09T21:29:26.347Z,5.07
2022-09-09T21:31:55.680Z,4.70
2022-09-09T21:34:23.303Z,4.47
2022-09-09T21:36:50.494Z,4.00
2022-09-09T21:39:18.025Z,3.80
2022-09-09T21:41:45.142Z,3.42
2022-09-09T21:44:14.436Z,3.47
2022-09-09T21:46:44.237Z,3.20
2022-09-09T21:49:11.477Z,2.90
2022-09-09T21:51:39.918Z,3.03
2022-09-09T21:54:31.623Z,3.65
2022-09-09T21:56:58.917Z,2.97
2022-09-09T21:59:27.845Z,3.10
2022-09-09T22:01:55.312Z,3.17
2022-09-09T22:04:22.564Z,3.00
2022-09-09T22:06:49.909Z,3.03
2022-09-09T22:09:17.538Z,3.88
2022-09-09T22:11:44.870Z,3.00
2022-09-09T22:14:11.988Z,3.10
2022-09-09T22:16:41.119Z,3.25
2022-09-09T22:19:10.220Z,3.27
2022-09-09T22:21:37.317Z,3.25
2022-09-09T22:24:05.575Z,4.03
2022-09-09T22:26:35.003Z,4.63
2022-09-09T22:29:03.999Z,3.72
2022-09-09T22:31:32.455Z,3.35
2022-09-09T22:33:59.805Z,3.88
2022-09-09T22:36:27.029Z,3.75
2022-09-09T22:38:55.924Z,4.40
2022-09-09T22:41:23.863Z,4.43
2022-09-09T22:43:51.169Z,4.53
2022-09-09T22:46:18.949Z,4.35
2022-09-09T22:48:46.398Z,4.60
2022-09-09T22:51:14.891Z,4.70
2022-09-09T22:53:46.230Z,4.93
2022-09-09T22:56:17.665Z,5.35
2022-09-09T23:01:16.913Z,5.00
2022-09-09T23:03:46.464Z,4.70
2022-09-09T23:06:22.730Z,4.82
2022-09-09T23:08:58.462Z,4.32
2022-09-09T23:11:31.591Z,4.68
2022-09-09T23:14:01.445Z,4.43
2022-09-09T23:16:39.594Z,5.43
2022-09-09T23:19:10.190Z,5.30
2022-09-09T23:21:39.261Z,5.30
2022-09-09T23:24:08.007Z,5.22
2022-09-09T23:26:35.234Z,4.97
2022-09-09T23:29:02.618Z,4.78
2022-09-09T23:31:33.108Z,4.95
2022-09-09T23:34:01.618Z,4.60
2022-09-09T23:36:29.733Z,5.60
2022-09-09T23:39:02.964Z,5.18
2022-09-09T23:41:31.479Z,5.13
2022-09-09T23:43:59.056Z,5.13
2022-09-09T23:46:28.614Z,5.35
2022-09-09T23:48:57.868Z,4.75
2022-09-09T23:51:30.581Z,5.18
2022-09-09T23:54:01.903Z,4.75
2022-09-09T23:56:32.572Z,5.57
2022-09-09T23:59:00.394Z,4.95
